Time;durP1;ratioP1;P1;durP2;ratioP2;P2;SDS_P1;SDS_P2;PMS_P1;PMS_P2;Temp;Humidity;BMP_temperature;BMP_pressure;BME280_temperature;BME280_humidity;BME280_pressure;Samples;Min_cycle;Max_cycle;Signal;HPM_P1;HPM_P2
2022/11/17 00:00:32;;;;;;;27.45;17.23;;;;;;;;;;5046634;28;20056;-80
2022/11/17 00:02:58;;;;;;;24.25;18.08;;;;;;;;;;5052906;28;20021;-79
2022/11/17 00:05:24;;;;;;;21.75;17.58;;;;;;;;;;5052699;28;20032;-81
2022/11/17 00:07:50;;;;;;;77.50;59.63;;;;;;;;;;5052674;28;20078;-80
2022/11/17 00:10:17;;;;;;;73.65;58.35;;;;;;;;;;5052558;28;20029;-80
2022/11/17 00:15:27;;;;;;;27.23;19.63;;;;;;;;;;5052536;28;20506;-80
2022/11/17 00:23:45;;;;;;;105.20;77.13;;;;;;;;;;5052604;28;20036;-81
2022/11/17 00:26:12;;;;;;;39.75;30.42;;;;;;;;;;5052669;28;20513;-81
2022/11/17 00:28:38;;;;;;;26.45;20.50;;;;;;;;;;5052029;28;20051;-81
2022/11/17 00:34:03;;;;;;;158.35;111.22;;;;;;;;;;5052529;28;20115;-79
2022/11/17 00:36:30;;;;;;;73.32;55.35;;;;;;;;;;5052368;28;20109;-81
2022/11/17 00:38:56;;;;;;;27.85;22.88;;;;;;;;;;5034664;28;20439;-80
2022/11/17 00:41:22;;;;;;;34.50;25.65;;;;;;;;;;5052151;28;20434;-81
2022/11/17 00:43:48;;;;;;;24.75;19.15;;;;;;;;;;5052314;28;20079;-81
2022/11/17 00:46:14;;;;;;;22.30;18.58;;;;;;;;;;5052002;28;20113;-80
2022/11/17 00:48:40;;;;;;;21.90;17.52;;;;;;;;;;5052131;28;20047;-81
2022/11/17 00:51:06;;;;;;;23.90;19.33;;;;;;;;;;5052114;28;20021;-80
2022/11/17 00:53:32;;;;;;;23.40;18.13;;;;;;;;;;5052122;28;20032;-81
2022/11/17 00:55:58;;;;;;;23.90;18.52;;;;;;;;;;5052184;28;20017;-79
2022/11/17 00:58:25;;;;;;;21.90;17.67;;;;;;;;;;5052007;28;20029;-81
2022/11/17 01:00:51;;;;;;;27.58;20.55;;;;;;;;;;5035667;28;20045;-80
2022/11/17 01:03:17;;;;;;;37.40;24.30;;;;;;;;;;5031653;28;20029;-81
2022/11/17 01:05:43;;;;;;;34.53;24.98;;;;;;;;;;5031693;28;20156;-81
2022/11/17 01:08:09;;;;;;;33.80;23.50;;;;;;;;;;5028861;28;20064;-80
2022/11/17 01:10:35;;;;;;;31.45;22.30;;;;;;;;;;5031538;28;20025;-79
2022/11/17 01:13:01;;;;;;;31.58;21.60;;;;;;;;;;5031760;28;20893;-81
2022/11/17 01:15:28;;;;;;;26.92;20.42;;;;;;;;;;5031318;28;20033;-80
2022/11/17 01:17:54;;;;;;;26.45;20.08;;;;;;;;;;5031519;28;20030;-79
2022/11/17 01:20:20;;;;;;;27.60;19.55;;;;;;;;;;5031416;28;20389;-80
2022/11/17 01:22:46;;;;;;;24.13;19.65;;;;;;;;;;5035437;28;20381;-81
2022/11/17 01:25:12;;;;;;;23.77;18.63;;;;;;;;;;5035515;28;20045;-79
2022/11/17 01:27:38;;;;;;;24.40;17.50;;;;;;;;;;5035077;28;20511;-81
2022/11/17 01:30:05;;;;;;;25.45;18.38;;;;;;;;;;5035203;28;20099;-82
2022/11/17 01:32:31;;;;;;;24.17;19.20;;;;;;;;;;5035194;28;20040;-81
2022/11/17 01:34:57;;;;;;;24.98;19.58;;;;;;;;;;5035226;28;20025;-80
2022/11/17 01:37:23;;;;;;;24.77;18.65;;;;;;;;;;5035057;28;20026;-79
2022/11/17 01:39:49;;;;;;;24.63;20.13;;;;;;;;;;5032226;28;20401;-79
2022/11/17 01:42:17;;;;;;;22.00;18.10;;;;;;;;;;5035122;28;20084;-80
2022/11/17 01:44:43;;;;;;;24.70;17.23;;;;;;;;;;5034894;28;20033;-81
2022/11/17 01:47:30;;;;;;;24.85;19.15;;;;;;;;;;5032333;28;20436;-80
2022/11/17 01:49:59;;;;;;;23.75;17.92;;;;;;;;;;5032798;28;20028;-80
2022/11/17 01:52:25;;;;;;;22.77;17.85;;;;;;;;;;5034564;28;20431;-80
2022/11/17 01:54:53;;;;;;;21.90;18.23;;;;;;;;;;5034948;28;20046;-80
2022/11/17 01:57:27;;;;;;;22.02;17.50;;;;;;;;;;5035126;28;20025;-81
2022/11/17 02:00:01;;;;;;;23.65;17.52;;;;;;;;;;5043716;28;20096;-80
2022/11/17 02:02:27;;;;;;;22.38;17.75;;;;;;;;;;5055144;28;20574;-81
2022/11/17 02:04:59;;;;;;;23.10;18.15;;;;;;;;;;5054959;28;20411;-82
2022/11/17 02:07:26;;;;;;;21.60;17.90;;;;;;;;;;5055109;28;20036;-80
2022/11/17 02:09:53;;;;;;;31.30;24.20;;;;;;;;;;5054896;28;20024;-81
2022/11/17 02:12:20;;;;;;;55.97;42.05;;;;;;;;;;5055063;28;20477;-82
2022/11/17 02:14:48;;;;;;;24.92;19.02;;;;;;;;;;5054941;28;20017;-82
2022/11/17 02:17:14;;;;;;;25.77;19.92;;;;;;;;;;5054581;28;20099;-80
2022/11/17 02:19:42;;;;;;;24.75;18.55;;;;;;;;;;5054789;28;20376;-80
2022/11/17 02:22:32;;;;;;;25.17;19.30;;;;;;;;;;5054558;28;20029;-81
2022/11/17 02:25:13;;;;;;;24.02;18.85;;;;;;;;;;5036856;28;20028;-80
2022/11/17 02:27:39;;;;;;;25.35;18.48;;;;;;;;;;5054363;28;20044;-80
2022/11/17 02:30:17;;;;;;;25.40;19.63;;;;;;;;;;5054643;28;20028;-81
2022/11/17 02:32:43;;;;;;;20.90;17.10;;;;;;;;;;5054503;28;20039;-82
2022/11/17 02:35:13;;;;;;;23.95;17.63;;;;;;;;;;5054633;28;20033;-81
2022/11/17 02:37:43;;;;;;;21.10;17.05;;;;;;;;;;5054515;28;20103;-82
2022/11/17 02:40:10;;;;;;;24.65;17.05;;;;;;;;;;5054302;28;20084;-79
2022/11/17 02:45:31;;;;;;;22.60;17.73;;;;;;;;;;5054450;28;20036;-79
2022/11/17 02:47:59;;;;;;;24.33;17.75;;;;;;;;;;5054050;28;20036;-82
2022/11/17 02:50:26;;;;;;;24.15;17.80;;;;;;;;;;5054903;28;20028;-81
2022/11/17 02:52:52;;;;;;;21.42;18.05;;;;;;;;;;5054660;28;20025;-82
2022/11/17 02:55:18;;;;;;;22.85;18.02;;;;;;;;;;5054209;28;20025;-82
2022/11/17 02:57:44;;;;;;;20.70;16.88;;;;;;;;;;5054168;28;20051;-82
2022/11/17 03:00:15;;;;;;;26.15;20.20;;;;;;;;;;5042777;28;20045;-80
2022/11/17 03:02:53;;;;;;;38.70;29.83;;;;;;;;;;5034099;28;20030;-82
2022/11/17 03:05:38;;;;;;;84.90;59.17;;;;;;;;;;5034063;28;20033;-80
2022/11/17 03:08:04;;;;;;;;;;;;;;;;;;5034488;28;20519;-82
2022/11/17 03:10:33;;;;;;;25.00;18.40;;;;;;;;;;5033795;28;19948;-81
2022/11/17 03:13:04;;;;;;;24.70;18.65;;;;;;;;;;5033995;28;20026;-81
2022/11/17 03:15:36;;;;;;;22.67;18.00;;;;;;;;;;5033638;28;20056;-80
2022/11/17 03:18:04;;;;;;;23.52;17.88;;;;;;;;;;5033871;28;20505;-79
2022/11/17 03:20:34;;;;;;;23.52;17.13;;;;;;;;;;5033576;28;20448;-80
2022/11/17 03:29:09;;;;;;;24.63;17.95;;;;;;;;;;5033827;28;20165;-81
2022/11/17 03:31:37;;;;;;;23.77;18.15;;;;;;;;;;5033706;28;20032;-80
2022/11/17 03:34:04;;;;;;;22.67;18.08;;;;;;;;;;5033462;28;20028;-81
2022/11/17 03:36:33;;;;;;;40.45;33.13;;;;;;;;;;5033210;28;20036;-82
2022/11/17 03:39:01;;;;;;;32.20;26.02;;;;;;;;;;5033310;28;20037;-82
2022/11/17 03:41:29;;;;;;;25.98;20.35;;;;;;;;;;5033070;28;20029;-81
2022/11/17 03:43:57;;;;;;;25.55;19.52;;;;;;;;;;5032612;28;20460;-80
2022/11/17 03:46:23;;;;;;;21.17;17.88;;;;;;;;;;5033107;28;20033;-83
2022/11/17 03:49:08;;;;;;;31.15;19.77;;;;;;;;;;5033014;28;20037;-82
2022/11/17 03:51:34;;;;;;;28.15;20.33;;;;;;;;;;5033376;28;20022;-81
2022/11/17 03:54:00;;;;;;;23.58;18.80;;;;;;;;;;5032876;28;20100;-80
2022/11/17 03:56:45;;;;;;;57.80;40.97;;;;;;;;;;5033320;28;20022;-82
2022/11/17 03:59:23;;;;;;;115.20;83.30;;;;;;;;;;5035704;28;20132;-82
2022/11/17 04:07:56;;;;;;;58.83;40.03;;;;;;;;;;5052954;28;20490;-80
2022/11/17 04:10:26;;;;;;;71.93;56.33;;;;;;;;;;5052870;28;20029;-81
2022/11/17 04:15:57;;;;;;;43.45;34.58;;;;;;;;;;5052726;28;20091;-80
2022/11/17 04:21:08;;;;;;;28.40;21.58;;;;;;;;;;5052425;28;20425;-80
2022/11/17 04:23:34;;;;;;;28.02;21.98;;;;;;;;;;5052662;28;20029;-80
2022/11/17 04:28:47;;;;;;;29.10;22.55;;;;;;;;;;5052378;28;20048;-81
2022/11/17 04:31:32;;;;;;;27.00;20.77;;;;;;;;;;5052590;28;20049;-83
2022/11/17 04:34:02;;;;;;;27.58;20.67;;;;;;;;;;5052484;28;20028;-83
2022/11/17 04:36:29;;;;;;;28.92;21.13;;;;;;;;;;5052216;28;20384;-81
2022/11/17 04:38:56;;;;;;;27.52;20.65;;;;;;;;;;5052189;28;20605;-82
2022/11/17 04:44:09;;;;;;;30.50;22.38;;;;;;;;;;5051988;28;20040;-80
2022/11/17 04:46:35;;;;;;;30.25;22.40;;;;;;;;;;5052314;28;20033;-80
2022/11/17 04:49:02;;;;;;;28.70;22.15;;;;;;;;;;5051780;28;20021;-82
2022/11/17 04:51:29;;;;;;;82.63;60.67;;;;;;;;;;5051874;28;20037;-81
2022/11/17 04:53:55;;;;;;;39.63;31.23;;;;;;;;;;5046827;28;20473;-80
2022/11/17 04:56:22;;;;;;;28.48;20.83;;;;;;;;;;5034053;28;20029;-82
2022/11/17 04:58:48;;;;;;;29.48;21.20;;;;;;;;;;5036411;28;20021;-81
2022/11/17 05:01:16;;;;;;;38.42;28.92;;;;;;;;;;5035444;28;20053;-79
2022/11/17 05:04:01;;;;;;;65.30;51.65;;;;;;;;;;5018457;28;20106;-81
2022/11/17 05:06:27;;;;;;;;;;;;;;;;;;5018808;28;20025;-82
2022/11/17 05:08:54;;;;;;;28.38;21.55;;;;;;;;;;5035470;28;19915;-83
2022/11/17 05:14:06;;;;;;;31.67;20.35;;;;;;;;;;5035933;28;20153;-80
2022/11/17 05:19:19;;;;;;;26.75;19.67;;;;;;;;;;5035385;28;20500;-80
2022/11/17 05:21:45;;;;;;;26.30;21.35;;;;;;;;;;5035482;28;20108;-81
2022/11/17 05:24:13;;;;;;;33.70;25.38;;;;;;;;;;5035648;28;20108;-80
2022/11/17 05:26:40;;;;;;;26.45;20.90;;;;;;;;;;5035132;28;20033;-80
2022/11/17 05:29:07;;;;;;;126.45;97.03;;;;;;;;;;5035529;28;20053;-79
2022/11/17 05:31:33;;;;;;;42.72;32.17;;;;;;;;;;5035160;28;20025;-79
2022/11/17 05:33:59;;;;;;;31.67;24.45;;;;;;;;;;5035336;28;20429;-79
2022/11/17 05:36:26;;;;;;;66.72;50.08;;;;;;;;;;5035159;28;20021;-79
2022/11/17 05:38:52;;;;;;;53.78;42.45;;;;;;;;;;5035102;28;20032;-79
2022/11/17 05:41:19;;;;;;;32.13;24.58;;;;;;;;;;5035314;28;20029;-79
2022/11/17 05:43:45;;;;;;;31.75;24.02;;;;;;;;;;5035107;28;20029;-79
2022/11/17 05:46:12;;;;;;;40.17;32.63;;;;;;;;;;5035175;28;20017;-78
2022/11/17 05:48:39;;;;;;;46.15;34.42;;;;;;;;;;5034580;28;20025;-79
2022/11/17 05:51:09;;;;;;;53.85;39.92;;;;;;;;;;5035110;28;20084;-79
2022/11/17 05:53:35;;;;;;;43.25;35.70;;;;;;;;;;5034887;28;20029;-79
2022/11/17 05:56:04;;;;;;;44.13;34.78;;;;;;;;;;5035028;28;20032;-80
2022/11/17 05:58:32;;;;;;;42.70;33.67;;;;;;;;;;5035167;28;20036;-80
2022/11/17 06:00:59;;;;;;;42.50;33.05;;;;;;;;;;5035151;28;20055;-79
2022/11/17 06:03:27;;;;;;;50.80;35.08;;;;;;;;;;5035283;28;20017;-80
2022/11/17 06:05:53;;;;;;;37.65;28.90;;;;;;;;;;5034848;28;20026;-79
2022/11/17 06:08:19;;;;;;;41.00;31.00;;;;;;;;;;5033086;28;20033;-79
2022/11/17 06:10:46;;;;;;;39.80;30.30;;;;;;;;;;5034248;28;20033;-80
2022/11/17 06:13:12;;;;;;;52.92;37.08;;;;;;;;;;5034611;28;20030;-79
2022/11/17 06:15:38;;;;;;;48.05;31.42;;;;;;;;;;5034123;28;20041;-79
2022/11/17 06:18:05;;;;;;;44.15;32.08;;;;;;;;;;5034179;28;20108;-79
2022/11/17 06:20:49;;;;;;;41.47;33.03;;;;;;;;;;5033743;28;20056;-79
2022/11/17 06:23:17;;;;;;;41.55;33.10;;;;;;;;;;5034125;28;20165;-79
2022/11/17 06:25:43;;;;;;;43.45;34.35;;;;;;;;;;5034009;28;20080;-79
2022/11/17 06:28:12;;;;;;;40.55;31.25;;;;;;;;;;5033755;28;20121;-80
2022/11/17 06:30:45;;;;;;;40.33;31.73;;;;;;;;;;5032899;28;20033;-80
2022/11/17 06:33:13;;;;;;;40.33;34.05;;;;;;;;;;5014842;28;20436;-79
2022/11/17 06:35:40;;;;;;;46.03;36.70;;;;;;;;;;5026809;28;20396;-78
2022/11/17 06:38:06;;;;;;;20.02;15.73;;;;;;;;;;5030130;28;20580;-78
2022/11/17 06:40:32;;;;;;;25.33;20.63;;;;;;;;;;5028410;28;20021;-79
2022/11/17 06:43:08;;;;;;;29.83;22.52;;;;;;;;;;5040330;28;20021;-81
2022/11/17 06:45:39;;;;;;;31.65;23.15;;;;;;;;;;5048187;28;20108;-86
2022/11/17 06:48:05;;;;;;;31.60;22.63;;;;;;;;;;5280095;22;20432;-79
2022/11/17 06:50:32;;;;;;;33.25;23.85;;;;;;;;;;4992744;28;20029;-81
2022/11/17 06:53:05;;;;;;;40.85;25.00;;;;;;;;;;4987326;28;20370;-87
2022/11/17 06:55:48;;;;;;;35.33;25.13;;;;;;;;;;4975652;28;20037;-85
2022/11/17 06:58:36;;;;;;;34.42;27.48;;;;;;;;;;4990743;28;20384;-89
2022/11/17 07:01:19;;;;;;;36.03;26.52;;;;;;;;;;4970376;28;20038;-86
2022/11/17 07:03:45;;;;;;;34.88;25.60;;;;;;;;;;4991066;28;20030;-88
2022/11/17 07:06:11;;;;;;;30.45;24.40;;;;;;;;;;4990502;28;20034;-89
2022/11/17 07:08:38;;;;;;;29.75;25.02;;;;;;;;;;5006212;28;20124;-83
2022/11/17 07:11:05;;;;;;;40.47;33.97;;;;;;;;;;4977163;28;20117;-82
2022/11/17 07:13:32;;;;;;;42.97;34.80;;;;;;;;;;4991600;28;20683;-85
2022/11/17 07:16:03;;;;;;;39.28;32.20;;;;;;;;;;4971330;28;20037;-84
2022/11/17 07:18:29;;;;;;;41.03;31.48;;;;;;;;;;4989217;28;20066;-83
2022/11/17 07:20:55;;;;;;;39.45;28.15;;;;;;;;;;4996476;28;20038;-82
2022/11/17 07:23:21;;;;;;;31.73;25.27;;;;;;;;;;4990234;28;20031;-80
2022/11/17 07:25:47;;;;;;;34.17;25.23;;;;;;;;;;4989648;28;20037;-83
2022/11/17 07:28:13;;;;;;;35.20;24.55;;;;;;;;;;4990038;28;20050;-83
2022/11/17 07:30:39;;;;;;;34.70;25.25;;;;;;;;;;4979292;28;20128;-84
2022/11/17 07:33:09;;;;;;;37.83;27.52;;;;;;;;;;4990000;28;20397;-85
2022/11/17 07:35:36;;;;;;;37.25;27.50;;;;;;;;;;4990165;28;20029;-84
2022/11/17 07:38:02;;;;;;;35.92;26.88;;;;;;;;;;4982789;28;20023;-82
2022/11/17 07:40:29;;;;;;;35.67;26.60;;;;;;;;;;4984517;28;20077;-86
2022/11/17 07:42:55;;;;;;;34.17;25.98;;;;;;;;;;4991170;28;20031;-82
2022/11/17 07:45:22;;;;;;;34.67;27.10;;;;;;;;;;4980127;28;20030;-70
2022/11/17 07:47:55;;;;;;;37.35;26.55;;;;;;;;;;4990377;28;20041;-68
2022/11/17 07:50:21;;;;;;;31.67;24.90;;;;;;;;;;5026172;28;20184;-68
2022/11/17 07:52:49;;;;;;;37.03;26.70;;;;;;;;;;5008513;28;20111;-68
2022/11/17 07:55:15;;;;;;;33.58;25.40;;;;;;;;;;5016145;28;20030;-67
2022/11/17 07:57:41;;;;;;;684.60;223.25;;;;;;;;;;5012301;28;20479;-69
2022/11/17 08:00:07;;;;;;;717.10;240.68;;;;;;;;;;5011135;28;20029;-68
2022/11/17 08:05:09;;;;;;;85.22;36.92;;;;;;;;;;5080244;23;20046;-72
2022/11/17 08:07:36;;;;;;;223.35;84.40;;;;;;;;;;4987472;28;20030;-74
2022/11/17 08:10:02;;;;;;;167.40;65.80;;;;;;;;;;4988990;28;20042;-72
2022/11/17 08:12:28;;;;;;;215.27;81.00;;;;;;;;;;4990123;28;20045;-73
2022/11/17 08:14:54;;;;;;;32.22;24.33;;;;;;;;;;4987570;28;20026;-71
2022/11/17 08:17:20;;;;;;;31.50;23.55;;;;;;;;;;5263984;23;20017;-74
2022/11/17 08:19:46;;;;;;;28.67;21.30;;;;;;;;;;5156948;22;20077;-72
2022/11/17 08:22:12;;;;;;;28.52;23.00;;;;;;;;;;4989284;28;20092;-72
2022/11/17 08:24:38;;;;;;;31.55;25.55;;;;;;;;;;4983591;28;20029;-74
2022/11/17 08:27:04;;;;;;;238.68;81.03;;;;;;;;;;4988638;28;20619;-74
2022/11/17 08:29:30;;;;;;;49.03;30.58;;;;;;;;;;4989686;28;20390;-73
2022/11/17 08:31:57;;;;;;;42.35;27.98;;;;;;;;;;4988586;28;20121;-76
2022/11/17 08:34:23;;;;;;;38.58;27.73;;;;;;;;;;4987172;28;20030;-71
2022/11/17 08:36:49;;;;;;;52.03;27.35;;;;;;;;;;4992006;28;20481;-75
2022/11/17 08:39:15;;;;;;;27.88;21.38;;;;;;;;;;4991369;28;20030;-69
2022/11/17 08:41:41;;;;;;;33.50;20.70;;;;;;;;;;4985500;28;20157;-74
2022/11/17 08:44:07;;;;;;;23.80;17.45;;;;;;;;;;4984174;28;20046;-74
2022/11/17 08:46:34;;;;;;;24.75;17.92;;;;;;;;;;4987723;28;20034;-72
2022/11/17 08:49:00;;;;;;;20.38;16.30;;;;;;;;;;4993723;28;20034;-72
2022/11/17 08:51:28;;;;;;;190.93;63.75;;;;;;;;;;4984958;28;20117;-74
2022/11/17 08:53:54;;;;;;;139.50;51.38;;;;;;;;;;4995253;28;20500;-73
2022/11/17 08:56:20;;;;;;;161.38;57.20;;;;;;;;;;4990199;28;20034;-70
2022/11/17 08:58:46;;;;;;;183.70;60.80;;;;;;;;;;4954095;28;20038;-71
2022/11/17 09:01:17;;;;;;;37.08;20.50;;;;;;;;;;4990576;28;20081;-72
2022/11/17 09:03:44;;;;;;;30.65;17.40;;;;;;;;;;4998873;28;20041;-74
2022/11/17 09:06:11;;;;;;;307.00;100.90;;;;;;;;;;4982900;28;20043;-73
2022/11/17 09:08:37;;;;;;;280.40;95.18;;;;;;;;;;4971203;28;20223;-71
2022/11/17 09:11:04;;;;;;;151.05;54.80;;;;;;;;;;4975372;28;20029;-71
2022/11/17 09:13:31;;;;;;;57.50;24.48;;;;;;;;;;4981030;28;20034;-75
2022/11/17 09:16:03;;;;;;;33.67;19.30;;;;;;;;;;4978511;28;20073;-72
2022/11/17 09:18:30;;;;;;;36.78;22.08;;;;;;;;;;4972478;28;20030;-74
2022/11/17 09:21:00;;;;;;;21.08;15.93;;;;;;;;;;4997747;28;20512;-74
2022/11/17 09:23:26;;;;;;;22.52;15.93;;;;;;;;;;4997029;28;20065;-70
2022/11/17 09:25:56;;;;;;;29.88;19.90;;;;;;;;;;4994419;28;20030;-70
2022/11/17 09:28:25;;;;;;;23.17;18.85;;;;;;;;;;4985943;28;20034;-68
2022/11/17 09:30:52;;;;;;;30.60;22.15;;;;;;;;;;4985876;28;20034;-78
2022/11/17 09:33:18;;;;;;;19.65;17.00;;;;;;;;;;4984033;28;20105;-71
2022/11/17 09:35:44;;;;;;;24.73;19.05;;;;;;;;;;4988734;28;20040;-74
2022/11/17 09:38:10;;;;;;;21.02;16.17;;;;;;;;;;4985149;28;20031;-76
2022/11/17 09:40:38;;;;;;;14.90;12.40;;;;;;;;;;4979158;28;20568;-72
2022/11/17 09:43:11;;;;;;;15.57;13.43;;;;;;;;;;5000800;28;20025;-70
2022/11/17 09:45:38;;;;;;;13.43;11.82;;;;;;;;;;4992780;28;20061;-79
2022/11/17 09:48:20;;;;;;;11.15;10.00;;;;;;;;;;4995751;28;20117;-72
2022/11/17 09:50:46;;;;;;;14.82;12.25;;;;;;;;;;4994089;28;20386;-71
2022/11/17 09:53:31;;;;;;;13.50;12.00;;;;;;;;;;4994065;28;20557;-70
2022/11/17 09:56:11;;;;;;;16.77;13.20;;;;;;;;;;4975146;28;20037;-72
2022/11/17 09:58:57;;;;;;;14.15;11.88;;;;;;;;;;4973984;28;20022;-75
2022/11/17 10:01:27;;;;;;;16.75;13.13;;;;;;;;;;4998284;28;20022;-73
2022/11/17 10:03:54;;;;;;;16.50;11.65;;;;;;;;;;4981031;28;20037;-71
2022/11/17 10:06:26;;;;;;;16.23;13.65;;;;;;;;;;4988059;28;20030;-75
2022/11/17 10:09:11;;;;;;;13.63;11.65;;;;;;;;;;4993774;28;20053;-74
2022/11/17 10:11:41;;;;;;;14.95;12.35;;;;;;;;;;5005433;28;20045;-73
2022/11/17 10:14:09;;;;;;;13.85;11.13;;;;;;;;;;4984920;28;20402;-77
2022/11/17 10:16:37;;;;;;;13.68;11.23;;;;;;;;;;4974478;28;20058;-71
2022/11/17 10:19:21;;;;;;;15.25;12.45;;;;;;;;;;4987352;28;20047;-74
2022/11/17 10:21:47;;;;;;;;;;;;;;;;;;4992997;28;20033;-72
2022/11/17 10:24:32;;;;;;;12.65;10.13;;;;;;;;;;4984570;28;20008;-74
2022/11/17 10:26:58;;;;;;;;;;;;;;;;;;4976928;28;20026;-74
2022/11/17 10:29:24;;;;;;;15.40;12.45;;;;;;;;;;4993680;28;20671;-75
2022/11/17 10:31:50;;;;;;;12.52;10.98;;;;;;;;;;4992434;28;20034;-72
2022/11/17 10:34:36;;;;;;;14.88;11.20;;;;;;;;;;4990129;28;20031;-72
2022/11/17 10:37:14;;;;;;;15.57;11.43;;;;;;;;;;4988572;28;20034;-74
2022/11/17 10:39:41;;;;;;;15.10;11.50;;;;;;;;;;4985389;28;20038;-71
2022/11/17 10:42:13;;;;;;;20.73;12.35;;;;;;;;;;4993516;28;20034;-72
2022/11/17 10:44:40;;;;;;;22.35;14.20;;;;;;;;;;4992255;28;20101;-72
2022/11/17 10:47:23;;;;;;;69.10;28.65;;;;;;;;;;4992861;28;20030;-74
2022/11/17 10:50:04;;;;;;;47.97;22.80;;;;;;;;;;4993478;28;20034;-74
2022/11/17 10:52:30;;;;;;;32.20;17.75;;;;;;;;;;4992461;28;20366;-75
2022/11/17 10:55:14;;;;;;;25.40;14.65;;;;;;;;;;4975515;28;20044;-75
2022/11/17 10:57:43;;;;;;;16.02;11.00;;;;;;;;;;4990528;28;20031;-77
2022/11/17 11:00:21;;;;;;;13.45;10.77;;;;;;;;;;4987753;28;20034;-74
2022/11/17 11:02:47;;;;;;;12.98;9.57;;;;;;;;;;4957949;28;20034;-75
2022/11/17 11:05:20;;;;;;;15.20;11.43;;;;;;;;;;4986718;28;20069;-71
2022/11/17 11:07:46;;;;;;;12.10;9.90;;;;;;;;;;4975814;28;20034;-71
2022/11/17 11:10:30;;;;;;;10.75;9.52;;;;;;;;;;4996508;28;20130;-73
2022/11/17 11:13:00;;;;;;;;;;;;;;;;;;4990623;28;20026;-76
2022/11/17 11:15:30;;;;;;;10.80;9.35;;;;;;;;;;4986077;28;20000;-74
2022/11/17 11:17:56;;;;;;;10.25;9.25;;;;;;;;;;4990331;28;20026;-72
2022/11/17 11:20:39;;;;;;;12.13;9.32;;;;;;;;;;4993496;28;20092;-73
2022/11/17 11:23:23;;;;;;;9.88;8.82;;;;;;;;;;4983141;28;20714;-75
2022/11/17 11:25:59;;;;;;;12.35;10.32;;;;;;;;;;4984362;28;20026;-77
2022/11/17 11:28:25;;;;;;;16.02;10.57;;;;;;;;;;4989677;28;20034;-75
2022/11/17 11:31:00;;;;;;;27.90;15.52;;;;;;;;;;5006468;28;20038;-78
2022/11/17 11:33:52;;;;;;;27.98;14.73;;;;;;;;;;4993569;28;20041;-74
2022/11/17 11:36:37;;;;;;;30.05;15.85;;;;;;;;;;4958437;28;20042;-74
2022/11/17 11:39:02;;;;;;;;;;;;;;;;;;4985595;28;20027;-74
2022/11/17 11:41:35;;;;;;;37.70;16.83;;;;;;;;;;4987211;28;20261;-76
2022/11/17 11:44:20;;;;;;;25.55;13.88;;;;;;;;;;4986546;28;20503;-77
2022/11/17 11:46:46;;;;;;;30.70;14.05;;;;;;;;;;4981573;28;20031;-77
2022/11/17 11:49:29;;;;;;;47.00;20.05;;;;;;;;;;4984859;28;20038;-74
2022/11/17 11:51:55;;;;;;;39.25;19.20;;;;;;;;;;4978787;28;20105;-71
2022/11/17 11:54:40;;;;;;;23.13;13.27;;;;;;;;;;4980994;28;20034;-74
2022/11/17 11:57:08;;;;;;;15.98;11.27;;;;;;;;;;4984409;28;20034;-73
2022/11/17 11:59:53;;;;;;;18.20;11.00;;;;;;;;;;4966956;28;20045;-75
2022/11/17 12:02:38;;;;;;;13.85;10.43;;;;;;;;;;4990977;28;20117;-73
2022/11/17 12:05:27;;;;;;;13.27;10.20;;;;;;;;;;4990563;28;20026;-75
2022/11/17 12:08:12;;;;;;;14.30;10.27;;;;;;;;;;4983167;28;20125;-76
2022/11/17 12:10:48;;;;;;;14.65;9.93;;;;;;;;;;4989785;28;20050;-74
2022/11/17 12:13:16;;;;;;;14.50;10.02;;;;;;;;;;4983062;28;20027;-75
2022/11/17 12:15:43;;;;;;;16.55;11.40;;;;;;;;;;4984764;28;20107;-69
2022/11/17 12:18:18;;;;;;;12.13;9.68;;;;;;;;;;4985818;28;20492;-78
2022/11/17 12:20:47;;;;;;;12.90;9.30;;;;;;;;;;4981938;28;20062;-73
2022/11/17 12:23:49;;;;;;;11.25;8.93;;;;;;;;;;4982488;28;20104;-70
2022/11/17 12:26:23;;;;;;;12.13;8.90;;;;;;;;;;4903740;29;20100;-76
2022/11/17 12:28:49;;;;;;;8.93;7.57;;;;;;;;;;4903093;29;20127;-76
2022/11/17 12:31:34;;;;;;;13.05;9.35;;;;;;;;;;4902777;29;20028;-79
2022/11/17 12:33:59;;;;;;;;;;;;;;;;;;4930706;28;20038;-79
2022/11/17 12:36:33;;;;;;;10.15;7.70;;;;;;;;;;4978522;28;19914;-81
2022/11/17 12:39:00;;;;;;;16.90;13.80;;;;;;;;;;4986545;28;20065;-79
2022/11/17 12:41:45;;;;;;;13.23;10.00;;;;;;;;;;4991018;28;20034;-80
2022/11/17 12:44:43;;;;;;;11.30;8.95;;;;;;;;;;4987582;28;20033;-80
2022/11/17 12:47:11;;;;;;;11.65;8.88;;;;;;;;;;4974517;28;20038;-81
2022/11/17 12:49:56;;;;;;;48.50;40.30;;;;;;;;;;4991243;28;20042;-79
2022/11/17 12:52:41;;;;;;;15.02;13.50;;;;;;;;;;4998724;28;20066;-80
2022/11/17 12:55:26;;;;;;;10.30;9.20;;;;;;;;;;4981520;28;20042;-84
2022/11/17 12:58:19;;;;;;;12.18;10.40;;;;;;;;;;4976273;28;20169;-81
2022/11/17 13:01:04;;;;;;;12.55;8.52;;;;;;;;;;4937278;28;20047;-80
2022/11/17 13:03:40;;;;;;;12.35;9.27;;;;;;;;;;4977321;28;20084;-81
2022/11/17 13:06:11;;;;;;;12.05;8.85;;;;;;;;;;4995213;28;20105;-82
2022/11/17 13:08:38;;;;;;;10.75;8.20;;;;;;;;;;4978327;28;20104;-79
2022/11/17 13:14:26;;;;;;;48.03;26.70;;;;;;;;;;4994468;28;20068;-80
2022/11/17 13:16:52;;;;;;;18.38;12.23;;;;;;;;;;4968366;28;20090;-80
2022/11/17 13:19:33;;;;;;;18.75;10.25;;;;;;;;;;4969074;28;20066;-80
2022/11/17 13:22:00;;;;;;;15.15;9.25;;;;;;;;;;4991454;28;20030;-80
2022/11/17 13:24:35;;;;;;;13.20;8.43;;;;;;;;;;5002565;28;20109;-78
2022/11/17 13:27:02;;;;;;;11.18;6.70;;;;;;;;;;5005764;28;20048;-80
2022/11/17 13:29:29;;;;;;;12.77;6.90;;;;;;;;;;4999377;28;20030;-79
2022/11/17 13:32:05;;;;;;;12.60;8.15;;;;;;;;;;4995701;28;20470;-80
2022/11/17 13:34:31;;;;;;;8.57;6.53;;;;;;;;;;4996801;28;20496;-80
2022/11/17 13:36:59;;;;;;;14.48;8.43;;;;;;;;;;4988253;28;20089;-79
2022/11/17 13:39:28;;;;;;;10.85;7.13;;;;;;;;;;5000361;28;20556;-80
2022/11/17 13:41:56;;;;;;;10.45;7.07;;;;;;;;;;5005706;28;20507;-80
2022/11/17 13:44:23;;;;;;;12.07;7.80;;;;;;;;;;4995553;28;20058;-80
2022/11/17 13:46:49;;;;;;;9.10;7.03;;;;;;;;;;5010399;28;20109;-79
2022/11/17 13:49:33;;;;;;;13.02;8.93;;;;;;;;;;5004720;28;20042;-80
2022/11/17 13:52:00;;;;;;;11.45;9.18;;;;;;;;;;5001667;28;20026;-81
2022/11/17 13:54:26;;;;;;;14.02;9.65;;;;;;;;;;5002492;28;20034;-80
2022/11/17 13:57:15;;;;;;;10.30;8.25;;;;;;;;;;4988375;28;20519;-80
2022/11/17 13:59:41;;;;;;;17.95;10.88;;;;;;;;;;4997781;28;20088;-80
2022/11/17 14:02:27;;;;;;;14.85;10.70;;;;;;;;;;4987334;28;20026;-80
2022/11/17 14:05:17;;;;;;;9.13;7.50;;;;;;;;;;4983526;28;20030;-79
2022/11/17 14:07:44;;;;;;;11.30;7.93;;;;;;;;;;4998090;28;20096;-80
2022/11/17 14:10:11;;;;;;;15.65;10.07;;;;;;;;;;4989801;28;20105;-80
2022/11/17 14:12:37;;;;;;;8.63;6.55;;;;;;;;;;4983014;28;20102;-80
2022/11/17 14:15:23;;;;;;;17.85;8.93;;;;;;;;;;4977252;28;20039;-80
2022/11/17 14:17:53;;;;;;;13.95;9.55;;;;;;;;;;4984244;28;20042;-80
2022/11/17 14:20:25;;;;;;;13.27;9.20;;;;;;;;;;4982084;28;20090;-79
2022/11/17 14:23:10;;;;;;;14.20;10.77;;;;;;;;;;4982710;28;20113;-80
2022/11/17 14:25:38;;;;;;;14.90;10.98;;;;;;;;;;4984532;28;20053;-80
2022/11/17 14:28:04;;;;;;;14.38;10.70;;;;;;;;;;4982271;28;20031;-80
2022/11/17 14:30:30;;;;;;;13.80;11.18;;;;;;;;;;4982114;28;20042;-80
2022/11/17 14:32:56;;;;;;;19.85;15.80;;;;;;;;;;4983019;28;20058;-80
2022/11/17 14:35:23;;;;;;;32.35;21.83;;;;;;;;;;4984446;28;20030;-79
2022/11/17 14:37:49;;;;;;;30.63;21.05;;;;;;;;;;4990265;28;20533;-80
2022/11/17 14:40:16;;;;;;;29.58;22.55;;;;;;;;;;4992579;28;20040;-80
2022/11/17 14:42:43;;;;;;;29.92;23.80;;;;;;;;;;4992734;28;20088;-79
2022/11/17 14:45:13;;;;;;;23.48;19.30;;;;;;;;;;4991536;28;20089;-79
2022/11/17 14:47:39;;;;;;;32.20;25.13;;;;;;;;;;4992085;28;20088;-79
2022/11/17 14:50:06;;;;;;;38.53;30.33;;;;;;;;;;4992027;28;20034;-73
2022/11/17 14:52:32;;;;;;;25.73;21.33;;;;;;;;;;4992503;28;20031;-79
2022/11/17 14:54:59;;;;;;;23.67;21.25;;;;;;;;;;4992434;28;20082;-79
2022/11/17 14:57:25;;;;;;;37.35;30.63;;;;;;;;;;4975119;28;20026;-79
2022/11/17 14:59:51;;;;;;;28.52;23.75;;;;;;;;;;4992605;28;20061;-80
2022/11/17 15:02:17;;;;;;;25.60;19.52;;;;;;;;;;4992206;28;20121;-80
2022/11/17 15:04:43;;;;;;;21.40;18.58;;;;;;;;;;4991828;28;20026;-79
2022/11/17 15:07:09;;;;;;;16.70;14.80;;;;;;;;;;4992212;28;20068;-80
2022/11/17 15:09:35;;;;;;;15.20;10.75;;;;;;;;;;4992220;28;20042;-79
2022/11/17 15:12:01;;;;;;;15.60;11.60;;;;;;;;;;4991764;28;20038;-80
2022/11/17 15:14:28;;;;;;;30.13;22.60;;;;;;;;;;4991873;28;20389;-79
2022/11/17 15:16:54;;;;;;;13.52;10.98;;;;;;;;;;4991711;28;20089;-79
2022/11/17 15:19:20;;;;;;;14.63;10.77;;;;;;;;;;4990873;28;20054;-80
2022/11/17 15:21:46;;;;;;;12.55;11.07;;;;;;;;;;4991561;28;20038;-78
2022/11/17 15:24:12;;;;;;;17.70;12.93;;;;;;;;;;4991251;28;20030;-80
2022/11/17 15:26:38;;;;;;;23.58;19.42;;;;;;;;;;4992215;28;20029;-80